Canefield Airport

Cloudy with light showers
28oC (82oF)

Cloudy with light showers


Winds: South easterly @ 05kts / 09km/h

Humidity: 58%

Barometric Pressure: 1018 mb

Accumulated Rainfall for January: 16.8 mm

Updated: 11:00 local time (15:00 UTC)

Douglas-Charles Airport

Cloudy and breezy
28oC (82oF)

Cloudy and breezy


Winds: East south easterly @ 12kts / 22km/h

Humidity: 67%

Barometric Pressure: 1020 mb

Accumulated Rainfall for January: 83.3 mm

Updated: 11:00 local time (15:00 UTC)

Satellite Imagery

Satellite Imagery
Click image for larger view. (Source: National Hurricane Center).

Aviation Routine Report (METAR)

Douglas-Charles: METAR TDPD 221500Z 11012KT 9999 BKN018 28/21 Q1020=
Canefield: METAR TDCF 221500Z 14005KT 9999 -SHRA BKN017 28/19 Q1018=